sensor_id;sensor_type;location;lat;lon;timestamp;temperature;humidity
51175;DHT22;37240;50.104;20.010;2023-08-12T00:00:15;21.00;85.60
51175;DHT22;37240;50.104;20.010;2023-08-12T00:05:16;21.00;85.80
51175;DHT22;37240;50.104;20.010;2023-08-12T00:10:16;21.00;85.80
51175;DHT22;37240;50.104;20.010;2023-08-12T00:15:17;20.90;85.10
51175;DHT22;37240;50.104;20.010;2023-08-12T00:20:17;20.90;85.70
51175;DHT22;37240;50.104;20.010;2023-08-12T00:25:18;20.70;85.60
51175;DHT22;37240;50.104;20.010;2023-08-12T00:30:19;20.60;87.00
51175;DHT22;37240;50.104;20.010;2023-08-12T00:35:19;20.60;88.80
51175;DHT22;37240;50.104;20.010;2023-08-12T00:40:20;20.50;89.30
51175;DHT22;37240;50.104;20.010;2023-08-12T00:45:20;20.40;90.00
51175;DHT22;37240;50.104;20.010;2023-08-12T00:50:21;20.40;90.30
51175;DHT22;37240;50.104;20.010;2023-08-12T00:55:22;20.30;90.50
51175;DHT22;37240;50.104;20.010;2023-08-12T01:00:23;20.20;90.70
51175;DHT22;37240;50.104;20.010;2023-08-12T01:05:23;20.10;91.00
51175;DHT22;37240;50.104;20.010;2023-08-12T01:10:29;20.00;91.40
51175;DHT22;37240;50.104;20.010;2023-08-12T01:15:32;19.90;91.60
51175;DHT22;37240;50.104;20.010;2023-08-12T01:20:33;19.90;91.90
51175;DHT22;37240;50.104;20.010;2023-08-12T01:25:34;19.90;92.20
51175;DHT22;37240;50.104;20.010;2023-08-12T01:30:48;19.80;92.50
51175;DHT22;37240;50.104;20.010;2023-08-12T01:36:12;19.70;92.80
51175;DHT22;37240;50.104;20.010;2023-08-12T01:41:15;19.70;93.10
51175;DHT22;37240;50.104;20.010;2023-08-12T01:46:16;19.60;93.30
51175;DHT22;37240;50.104;20.010;2023-08-12T01:51:17;19.50;93.50
51175;DHT22;37240;50.104;20.010;2023-08-12T01:56:18;19.40;93.70
51175;DHT22;37240;50.104;20.010;2023-08-12T02:01:18;19.40;93.90
51175;DHT22;37240;50.104;20.010;2023-08-12T02:06:19;19.30;94.00
51175;DHT22;37240;50.104;20.010;2023-08-12T02:11:19;19.30;94.10
51175;DHT22;37240;50.104;20.010;2023-08-12T02:16:20;19.30;94.10
51175;DHT22;37240;50.104;20.010;2023-08-12T02:21:20;19.30;94.20
51175;DHT22;37240;50.104;20.010;2023-08-12T02:26:21;19.20;94.10
51175;DHT22;37240;50.104;20.010;2023-08-12T02:31:21;19.10;94.30
51175;DHT22;37240;50.104;20.010;2023-08-12T02:36:22;19.00;94.40
51175;DHT22;37240;50.104;20.010;2023-08-12T02:41:22;18.90;94.70
51175;DHT22;37240;50.104;20.010;2023-08-12T02:46:23;18.90;94.40
51175;DHT22;37240;50.104;20.010;2023-08-12T02:51:24;18.90;94.70
51175;DHT22;37240;50.104;20.010;2023-08-12T02:56:24;18.90;94.60
51175;DHT22;37240;50.104;20.010;2023-08-12T03:01:25;18.90;94.60
51175;DHT22;37240;50.104;20.010;2023-08-12T03:06:25;18.80;94.60
51175;DHT22;37240;50.104;20.010;2023-08-12T03:11:26;18.70;94.70
51175;DHT22;37240;50.104;20.010;2023-08-12T03:16:26;18.70;95.10
51175;DHT22;37240;50.104;20.010;2023-08-12T03:21:27;18.60;95.10
51175;DHT22;37240;50.104;20.010;2023-08-12T03:26:27;18.60;95.30
51175;DHT22;37240;50.104;20.010;2023-08-12T03:31:28;18.70;95.20
51175;DHT22;37240;50.104;20.010;2023-08-12T03:36:28;18.50;95.20
51175;DHT22;37240;50.104;20.010;2023-08-12T03:41:29;18.30;95.40
51175;DHT22;37240;50.104;20.010;2023-08-12T03:46:29;18.30;95.30
51175;DHT22;37240;50.104;20.010;2023-08-12T03:51:30;18.40;95.30
51175;DHT22;37240;50.104;20.010;2023-08-12T03:56:31;18.40;95.00
51175;DHT22;37240;50.104;20.010;2023-08-12T04:01:31;18.50;95.20
51175;DHT22;37240;50.104;20.010;2023-08-12T04:06:32;18.70;94.80
51175;DHT22;37240;50.104;20.010;2023-08-12T04:11:32;18.80;94.60
51175;DHT22;37240;50.104;20.010;2023-08-12T04:16:33;19.20;94.30
51175;DHT22;37240;50.104;20.010;2023-08-12T04:21:33;19.50;93.70
51175;DHT22;37240;50.104;20.010;2023-08-12T04:26:34;19.90;92.90
51175;DHT22;37240;50.104;20.010;2023-08-12T04:31:34;20.20;92.00
51175;DHT22;37240;50.104;20.010;2023-08-12T04:36:35;20.50;91.50
51175;DHT22;37240;50.104;20.010;2023-08-12T04:41:36;20.80;91.00
51175;DHT22;37240;50.104;20.010;2023-08-12T04:46:36;21.20;90.10
51175;DHT22;37240;50.104;20.010;2023-08-12T04:51:37;21.40;89.40
51175;DHT22;37240;50.104;20.010;2023-08-12T04:56:37;21.70;88.30
51175;DHT22;37240;50.104;20.010;2023-08-12T05:01:38;22.20;87.90
51175;DHT22;37240;50.104;20.010;2023-08-12T05:06:38;22.60;85.40
51175;DHT22;37240;50.104;20.010;2023-08-12T05:11:39;22.80;84.20
51175;DHT22;37240;50.104;20.010;2023-08-12T05:16:39;23.10;83.20
51175;DHT22;37240;50.104;20.010;2023-08-12T05:21:40;23.40;81.60
51175;DHT22;37240;50.104;20.010;2023-08-12T05:26:41;23.70;80.80
51175;DHT22;37240;50.104;20.010;2023-08-12T05:31:41;24.20;78.90
51175;DHT22;37240;50.104;20.010;2023-08-12T05:36:42;24.50;77.00
51175;DHT22;37240;50.104;20.010;2023-08-12T05:41:42;24.80;75.30
51175;DHT22;37240;50.104;20.010;2023-08-12T05:46:43;25.10;75.40
51175;DHT22;37240;50.104;20.010;2023-08-12T05:51:44;25.30;73.60
51175;DHT22;37240;50.104;20.010;2023-08-12T05:56:44;25.60;75.90
51175;DHT22;37240;50.104;20.010;2023-08-12T06:01:45;25.90;73.20
51175;DHT22;37240;50.104;20.010;2023-08-12T06:06:45;26.20;72.30
51175;DHT22;37240;50.104;20.010;2023-08-12T06:11:46;26.40;69.90
51175;DHT22;37240;50.104;20.010;2023-08-12T06:16:46;26.60;71.30
51175;DHT22;37240;50.104;20.010;2023-08-12T06:21:47;28.70;62.60
51175;DHT22;37240;50.104;20.010;2023-08-12T06:26:47;32.20;52.40
51175;DHT22;37240;50.104;20.010;2023-08-12T06:31:48;33.80;48.00
51175;DHT22;37240;50.104;20.010;2023-08-12T06:36:48;34.90;45.40
51175;DHT22;37240;50.104;20.010;2023-08-12T06:41:49;34.60;44.10
51175;DHT22;37240;50.104;20.010;2023-08-12T06:46:49;34.10;44.80
51175;DHT22;37240;50.104;20.010;2023-08-12T06:51:50;34.50;44.40
51175;DHT22;37240;50.104;20.010;2023-08-12T06:56:50;34.50;44.40
51175;DHT22;37240;50.104;20.010;2023-08-12T07:01:51;34.60;44.50
51175;DHT22;37240;50.104;20.010;2023-08-12T07:06:53;35.40;43.00
51175;DHT22;37240;50.104;20.010;2023-08-12T07:11:53;35.00;43.00
51175;DHT22;37240;50.104;20.010;2023-08-12T07:16:54;34.70;42.90
51175;DHT22;37240;50.104;20.010;2023-08-12T07:21:54;34.90;43.70
51175;DHT22;37240;50.104;20.010;2023-08-12T07:26:55;35.40;42.50
51175;DHT22;37240;50.104;20.010;2023-08-12T07:31:56;35.60;41.70
51175;DHT22;37240;50.104;20.010;2023-08-12T07:36:56;35.50;41.90
51175;DHT22;37240;50.104;20.010;2023-08-12T07:41:57;35.00;42.40
51175;DHT22;37240;50.104;20.010;2023-08-12T07:46:57;35.20;42.40
51175;DHT22;37240;50.104;20.010;2023-08-12T07:51:58;35.60;40.80
51175;DHT22;37240;50.104;20.010;2023-08-12T07:56:58;35.30;41.10
51175;DHT22;37240;50.104;20.010;2023-08-12T08:01:59;36.00;40.70
51175;DHT22;37240;50.104;20.010;2023-08-12T08:07:00;36.30;39.90
51175;DHT22;37240;50.104;20.010;2023-08-12T08:12:01;35.40;41.10
51175;DHT22;37240;50.104;20.010;2023-08-12T08:17:01;34.80;42.20
51175;DHT22;37240;50.104;20.010;2023-08-12T08:22:02;34.40;42.50
51175;DHT22;37240;50.104;20.010;2023-08-12T08:27:02;34.20;42.90
51175;DHT22;37240;50.104;20.010;2023-08-12T08:32:03;34.10;41.80
51175;DHT22;37240;50.104;20.010;2023-08-12T08:37:04;34.10;42.10
51175;DHT22;37240;50.104;20.010;2023-08-12T08:42:05;34.10;42.20
51175;DHT22;37240;50.104;20.010;2023-08-12T08:47:06;33.90;42.30
51175;DHT22;37240;50.104;20.010;2023-08-12T08:52:07;33.80;41.80
51175;DHT22;37240;50.104;20.010;2023-08-12T08:57:08;33.90;42.60
51175;DHT22;37240;50.104;20.010;2023-08-12T09:02:16;33.90;41.90
51175;DHT22;37240;50.104;20.010;2023-08-12T09:07:16;33.80;40.60
51175;DHT22;37240;50.104;20.010;2023-08-12T09:12:18;33.70;39.50
51175;DHT22;37240;50.104;20.010;2023-08-12T09:17:20;33.60;40.20
51175;DHT22;37240;50.104;20.010;2023-08-12T09:22:22;33.60;39.00
51175;DHT22;37240;50.104;20.010;2023-08-12T09:27:24;33.50;40.00
51175;DHT22;37240;50.104;20.010;2023-08-12T09:32:25;33.40;40.20
51175;DHT22;37240;50.104;20.010;2023-08-12T09:37:25;33.20;40.50
51175;DHT22;37240;50.104;20.010;2023-08-12T09:42:28;33.10;40.40
51175;DHT22;37240;50.104;20.010;2023-08-12T09:47:28;33.10;40.50
51175;DHT22;37240;50.104;20.010;2023-08-12T09:52:29;32.80;40.70
51175;DHT22;37240;50.104;20.010;2023-08-12T09:57:31;32.70;41.70
51175;DHT22;37240;50.104;20.010;2023-08-12T10:02:34;32.60;42.00
51175;DHT22;37240;50.104;20.010;2023-08-12T10:07:35;32.50;42.60
51175;DHT22;37240;50.104;20.010;2023-08-12T10:12:37;32.40;41.80
51175;DHT22;37240;50.104;20.010;2023-08-12T10:17:40;32.20;41.30
51175;DHT22;37240;50.104;20.010;2023-08-12T10:22:42;32.10;41.90
51175;DHT22;37240;50.104;20.010;2023-08-12T10:27:43;32.00;42.30
51175;DHT22;37240;50.104;20.010;2023-08-12T10:32:43;31.90;41.80
51175;DHT22;37240;50.104;20.010;2023-08-12T10:37:49;31.90;41.60
51175;DHT22;37240;50.104;20.010;2023-08-12T10:42:50;31.80;42.90
51175;DHT22;37240;50.104;20.010;2023-08-12T10:48:10;31.60;43.60
51175;DHT22;37240;50.104;20.010;2023-08-12T10:53:26;31.40;44.50
51175;DHT22;37240;50.104;20.010;2023-08-12T10:58:46;31.20;45.10
51175;DHT22;37240;50.104;20.010;2023-08-12T11:03:48;31.00;45.50
51175;DHT22;37240;50.104;20.010;2023-08-12T11:08:52;31.00;45.80
51175;DHT22;37240;50.104;20.010;2023-08-12T11:13:54;30.90;46.50
51175;DHT22;37240;50.104;20.010;2023-08-12T11:18:56;30.70;45.90
51175;DHT22;37240;50.104;20.010;2023-08-12T11:23:59;30.70;46.00
51175;DHT22;37240;50.104;20.010;2023-08-12T11:29:00;30.70;46.80
51175;DHT22;37240;50.104;20.010;2023-08-12T11:34:00;30.70;46.50
51175;DHT22;37240;50.104;20.010;2023-08-12T11:39:01;30.70;46.20
51175;DHT22;37240;50.104;20.010;2023-08-12T11:44:02;30.60;45.80
51175;DHT22;37240;50.104;20.010;2023-08-12T11:49:02;30.50;45.20
51175;DHT22;37240;50.104;20.010;2023-08-12T11:54:03;30.50;46.40
51175;DHT22;37240;50.104;20.010;2023-08-12T11:59:04;30.50;46.30
51175;DHT22;37240;50.104;20.010;2023-08-12T12:04:05;30.30;46.40
51175;DHT22;37240;50.104;20.010;2023-08-12T12:09:07;30.30;47.20
51175;DHT22;37240;50.104;20.010;2023-08-12T12:14:09;30.40;46.20
51175;DHT22;37240;50.104;20.010;2023-08-12T12:19:23;30.30;46.80
51175;DHT22;37240;50.104;20.010;2023-08-12T12:24:29;30.30;46.90
51175;DHT22;37240;50.104;20.010;2023-08-12T12:29:29;30.30;46.00
51175;DHT22;37240;50.104;20.010;2023-08-12T12:34:30;30.30;45.70
51175;DHT22;37240;50.104;20.010;2023-08-12T12:39:30;30.30;45.60
51175;DHT22;37240;50.104;20.010;2023-08-12T12:44:31;30.20;46.30
51175;DHT22;37240;50.104;20.010;2023-08-12T12:49:32;30.20;45.60
51175;DHT22;37240;50.104;20.010;2023-08-12T12:54:32;30.20;46.70
51175;DHT22;37240;50.104;20.010;2023-08-12T12:59:33;30.10;47.30
51175;DHT22;37240;50.104;20.010;2023-08-12T13:04:33;30.10;47.40
51175;DHT22;37240;50.104;20.010;2023-08-12T13:09:34;30.00;47.70
51175;DHT22;37240;50.104;20.010;2023-08-12T13:14:35;30.10;47.00
51175;DHT22;37240;50.104;20.010;2023-08-12T13:19:35;30.00;47.10
51175;DHT22;37240;50.104;20.010;2023-08-12T13:24:36;30.10;47.60
51175;DHT22;37240;50.104;20.010;2023-08-12T13:29:36;30.00;48.10
51175;DHT22;37240;50.104;20.010;2023-08-12T13:34:37;30.00;48.70
51175;DHT22;37240;50.104;20.010;2023-08-12T13:39:37;30.00;48.20
51175;DHT22;37240;50.104;20.010;2023-08-12T13:44:38;30.00;47.30
51175;DHT22;37240;50.104;20.010;2023-08-12T13:49:38;30.00;48.00
51175;DHT22;37240;50.104;20.010;2023-08-12T13:54:39;29.90;48.80
51175;DHT22;37240;50.104;20.010;2023-08-12T13:59:39;30.00;47.80
51175;DHT22;37240;50.104;20.010;2023-08-12T14:04:40;30.00;48.30
51175;DHT22;37240;50.104;20.010;2023-08-12T14:09:41;30.00;47.40
51175;DHT22;37240;50.104;20.010;2023-08-12T14:14:42;29.90;48.20
51175;DHT22;37240;50.104;20.010;2023-08-12T14:19:44;29.90;49.20
51175;DHT22;37240;50.104;20.010;2023-08-12T14:24:45;29.90;50.00
51175;DHT22;37240;50.104;20.010;2023-08-12T14:29:46;29.90;49.70
51175;DHT22;37240;50.104;20.010;2023-08-12T14:34:46;29.80;49.00
51175;DHT22;37240;50.104;20.010;2023-08-12T14:39:47;29.80;50.10
51175;DHT22;37240;50.104;20.010;2023-08-12T14:44:47;29.80;50.50
51175;DHT22;37240;50.104;20.010;2023-08-12T14:49:48;29.80;50.00
51175;DHT22;37240;50.104;20.010;2023-08-12T14:54:48;29.80;50.10
51175;DHT22;37240;50.104;20.010;2023-08-12T14:59:49;29.80;50.50
51175;DHT22;37240;50.104;20.010;2023-08-12T15:04:50;29.80;50.50
51175;DHT22;37240;50.104;20.010;2023-08-12T15:09:50;29.80;50.60
51175;DHT22;37240;50.104;20.010;2023-08-12T15:14:51;29.80;50.00
51175;DHT22;37240;50.104;20.010;2023-08-12T15:19:51;29.80;50.70
51175;DHT22;37240;50.104;20.010;2023-08-12T15:24:52;29.70;50.10
51175;DHT22;37240;50.104;20.010;2023-08-12T15:29:53;29.80;50.50
51175;DHT22;37240;50.104;20.010;2023-08-12T15:34:53;29.70;51.20
51175;DHT22;37240;50.104;20.010;2023-08-12T15:39:54;29.70;51.10
51175;DHT22;37240;50.104;20.010;2023-08-12T15:44:54;29.70;50.90
51175;DHT22;37240;50.104;20.010;2023-08-12T15:49:55;29.60;50.80
51175;DHT22;37240;50.104;20.010;2023-08-12T15:54:55;29.60;51.20
51175;DHT22;37240;50.104;20.010;2023-08-12T15:59:56;29.60;51.10
51175;DHT22;37240;50.104;20.010;2023-08-12T16:04:57;29.50;51.30
51175;DHT22;37240;50.104;20.010;2023-08-12T16:09:57;29.50;51.40
51175;DHT22;37240;50.104;20.010;2023-08-12T16:14:58;29.40;52.50
51175;DHT22;37240;50.104;20.010;2023-08-12T16:19:58;29.40;52.30
51175;DHT22;37240;50.104;20.010;2023-08-12T16:24:59;29.40;53.10
51175;DHT22;37240;50.104;20.010;2023-08-12T16:30:00;29.30;53.00
51175;DHT22;37240;50.104;20.010;2023-08-12T16:35:00;29.30;53.00
51175;DHT22;37240;50.104;20.010;2023-08-12T16:40:01;29.20;53.00
51175;DHT22;37240;50.104;20.010;2023-08-12T16:45:02;29.20;53.70
51175;DHT22;37240;50.104;20.010;2023-08-12T16:50:02;29.20;54.00
51175;DHT22;37240;50.104;20.010;2023-08-12T16:55:03;29.20;53.40
51175;DHT22;37240;50.104;20.010;2023-08-12T17:00:05;29.10;54.10
51175;DHT22;37240;50.104;20.010;2023-08-12T17:05:06;29.00;54.20
51175;DHT22;37240;50.104;20.010;2023-08-12T17:10:07;28.90;55.10
51175;DHT22;37240;50.104;20.010;2023-08-12T17:15:08;28.90;55.30
51175;DHT22;37240;50.104;20.010;2023-08-12T17:20:09;28.80;55.30
51175;DHT22;37240;50.104;20.010;2023-08-12T17:25:09;28.70;54.60
51175;DHT22;37240;50.104;20.010;2023-08-12T17:30:10;28.70;54.90
51175;DHT22;37240;50.104;20.010;2023-08-12T17:35:11;28.60;54.50
51175;DHT22;37240;50.104;20.010;2023-08-12T17:40:12;28.50;55.30
51175;DHT22;37240;50.104;20.010;2023-08-12T17:45:13;28.40;55.10
51175;DHT22;37240;50.104;20.010;2023-08-12T17:50:13;28.40;55.10
51175;DHT22;37240;50.104;20.010;2023-08-12T17:55:14;28.30;55.30
51175;DHT22;37240;50.104;20.010;2023-08-12T18:00:15;28.20;56.30
51175;DHT22;37240;50.104;20.010;2023-08-12T18:05:15;28.10;56.00
51175;DHT22;37240;50.104;20.010;2023-08-12T18:10:16;28.00;56.50
51175;DHT22;37240;50.104;20.010;2023-08-12T18:15:16;27.90;56.90
51175;DHT22;37240;50.104;20.010;2023-08-12T18:20:17;27.80;57.30
51175;DHT22;37240;50.104;20.010;2023-08-12T18:25:18;27.80;57.90
51175;DHT22;37240;50.104;20.010;2023-08-12T18:30:18;27.70;57.90
51175;DHT22;37240;50.104;20.010;2023-08-12T18:35:19;27.50;59.40
51175;DHT22;37240;50.104;20.010;2023-08-12T18:40:19;27.40;60.50
51175;DHT22;37240;50.104;20.010;2023-08-12T18:45:20;27.30;61.50
51175;DHT22;37240;50.104;20.010;2023-08-12T18:50:20;27.10;62.10
51175;DHT22;37240;50.104;20.010;2023-08-12T18:55:21;27.00;62.70
51175;DHT22;37240;50.104;20.010;2023-08-12T19:00:21;27.00;63.80
51175;DHT22;37240;50.104;20.010;2023-08-12T19:05:22;26.80;67.10
51175;DHT22;37240;50.104;20.010;2023-08-12T19:10:23;27.30;66.80
51175;DHT22;37240;50.104;20.010;2023-08-12T19:15:23;27.60;66.30
51175;DHT22;37240;50.104;20.010;2023-08-12T19:20:24;27.70;66.20
51175;DHT22;37240;50.104;20.010;2023-08-12T19:25:24;27.90;63.70
51175;DHT22;37240;50.104;20.010;2023-08-12T19:30:25;28.00;65.40
51175;DHT22;37240;50.104;20.010;2023-08-12T19:35:25;27.90;64.90
51175;DHT22;37240;50.104;20.010;2023-08-12T19:40:26;27.60;66.90
51175;DHT22;37240;50.104;20.010;2023-08-12T19:45:27;27.50;66.70
51175;DHT22;37240;50.104;20.010;2023-08-12T19:50:27;27.30;67.50
51175;DHT22;37240;50.104;20.010;2023-08-12T19:55:28;27.20;68.50
51175;DHT22;37240;50.104;20.010;2023-08-12T20:00:28;27.00;69.10
51175;DHT22;37240;50.104;20.010;2023-08-12T20:05:29;26.90;69.90
51175;DHT22;37240;50.104;20.010;2023-08-12T20:10:31;26.80;70.20
51175;DHT22;37240;50.104;20.010;2023-08-12T20:15:32;26.60;71.00
51175;DHT22;37240;50.104;20.010;2023-08-12T20:20:32;26.60;71.90
51175;DHT22;37240;50.104;20.010;2023-08-12T20:25:34;26.50;72.60
51175;DHT22;37240;50.104;20.010;2023-08-12T20:30:34;26.30;73.50
51175;DHT22;37240;50.104;20.010;2023-08-12T20:35:35;26.20;74.30
51175;DHT22;37240;50.104;20.010;2023-08-12T20:40:35;26.20;73.70
51175;DHT22;37240;50.104;20.010;2023-08-12T20:45:36;26.10;75.00
51175;DHT22;37240;50.104;20.010;2023-08-12T20:50:37;26.00;75.30
51175;DHT22;37240;50.104;20.010;2023-08-12T20:55:37;26.10;74.10
51175;DHT22;37240;50.104;20.010;2023-08-12T21:00:38;26.00;76.00
51175;DHT22;37240;50.104;20.010;2023-08-12T21:05:39;25.70;78.20
51175;DHT22;37240;50.104;20.010;2023-08-12T21:10:39;25.80;78.40
51175;DHT22;37240;50.104;20.010;2023-08-12T21:15:40;25.60;78.60
51175;DHT22;37240;50.104;20.010;2023-08-12T21:20:41;25.60;77.50
51175;DHT22;37240;50.104;20.010;2023-08-12T21:25:41;25.60;77.10
51175;DHT22;37240;50.104;20.010;2023-08-12T21:30:42;25.60;77.90
51175;DHT22;37240;50.104;20.010;2023-08-12T21:35:42;25.40;79.10
51175;DHT22;37240;50.104;20.010;2023-08-12T21:40:43;25.20;80.50
51175;DHT22;37240;50.104;20.010;2023-08-12T21:45:43;25.10;81.40
51175;DHT22;37240;50.104;20.010;2023-08-12T21:50:44;25.00;82.40
51175;DHT22;37240;50.104;20.010;2023-08-12T21:55:44;24.80;83.40
51175;DHT22;37240;50.104;20.010;2023-08-12T22:00:45;24.70;83.80
51175;DHT22;37240;50.104;20.010;2023-08-12T22:05:45;24.60;84.20
51175;DHT22;37240;50.104;20.010;2023-08-12T22:10:46;24.50;84.70
51175;DHT22;37240;50.104;20.010;2023-08-12T22:15:47;24.50;85.10
51175;DHT22;37240;50.104;20.010;2023-08-12T22:20:47;24.50;85.60
51175;DHT22;37240;50.104;20.010;2023-08-12T22:25:50;24.50;85.80
51175;DHT22;37240;50.104;20.010;2023-08-12T22:30:51;24.40;85.70
51175;DHT22;37240;50.104;20.010;2023-08-12T22:35:51;24.50;85.40
51175;DHT22;37240;50.104;20.010;2023-08-12T22:40:52;24.00;87.30
51175;DHT22;37240;50.104;20.010;2023-08-12T22:45:52;24.00;88.80
51175;DHT22;37240;50.104;20.010;2023-08-12T22:50:53;24.00;88.60
51175;DHT22;37240;50.104;20.010;2023-08-12T22:55:53;24.00;88.50
51175;DHT22;37240;50.104;20.010;2023-08-12T23:00:54;23.80;88.80
51175;DHT22;37240;50.104;20.010;2023-08-12T23:05:55;23.90;88.40
51175;DHT22;37240;50.104;20.010;2023-08-12T23:10:55;23.70;88.40
51175;DHT22;37240;50.104;20.010;2023-08-12T23:15:56;23.30;90.40
51175;DHT22;37240;50.104;20.010;2023-08-12T23:20:56;23.50;90.40
51175;DHT22;37240;50.104;20.010;2023-08-12T23:25:57;23.50;90.00
51175;DHT22;37240;50.104;20.010;2023-08-12T23:30:57;23.40;90.10
51175;DHT22;37240;50.104;20.010;2023-08-12T23:35:58;23.10;91.00
51175;DHT22;37240;50.104;20.010;2023-08-12T23:40:59;23.20;91.10
51175;DHT22;37240;50.104;20.010;2023-08-12T23:46:00;23.20;90.80
51175;DHT22;37240;50.104;20.010;2023-08-12T23:51:00;23.30;90.60
51175;DHT22;37240;50.104;20.010;2023-08-12T23:56:01;23.00;91.30
